createdAt,value
2023-01-26T09:40:29.409Z,225
2023-01-26T09:45:29.486Z,225
2023-01-26T09:50:28.618Z,225
2023-01-26T09:55:28.774Z,225
2023-01-26T10:00:29.152Z,225
2023-01-26T10:05:29.459Z,225
2023-01-26T10:10:28.791Z,225
2023-01-26T10:15:29.463Z,225
2023-01-26T10:20:28.632Z,225
2023-01-26T10:25:28.712Z,225
2023-01-26T10:30:29.133Z,225
2023-01-26T10:35:29.446Z,225
2023-01-26T10:40:29.480Z,225
2023-01-26T10:45:28.974Z,225
2023-01-26T10:50:29.537Z,248
2023-01-26T10:55:28.598Z,248
2023-01-26T11:00:28.708Z,248
2023-01-26T11:05:28.702Z,248
2023-01-26T11:10:28.822Z,248
2023-01-26T11:15:29.362Z,248
2023-01-26T11:20:29.410Z,248
2023-01-26T11:25:29.424Z,248
2023-01-26T11:30:28.545Z,248
2023-01-26T11:35:29.107Z,248
2023-01-26T11:40:29.373Z,248
2023-01-26T11:45:29.491Z,248
2023-01-26T11:50:28.653Z,248
2023-01-26T11:55:28.721Z,248
2023-01-26T12:00:30.421Z,248
2023-01-26T12:05:29.188Z,248
2023-01-26T12:10:29.091Z,248
2023-01-26T12:15:29.071Z,248
2023-01-26T12:20:28.968Z,248
2023-01-26T12:25:29.252Z,248
2023-01-26T12:30:28.914Z,248
2023-01-26T12:35:29.507Z,248
2023-01-26T12:40:28.765Z,248
2023-01-26T12:45:29.086Z,248
2023-01-26T12:50:29.172Z,248
2023-01-26T12:55:28.826Z,248
2023-01-26T13:00:29.395Z,248
2023-01-26T13:05:29.483Z,248
2023-01-26T13:10:29.923Z,248
2023-01-26T13:15:28.874Z,248
2023-01-26T13:20:29.240Z,292
2023-01-26T13:25:29.332Z,292
2023-01-26T13:30:28.948Z,315
2023-01-26T13:35:29.386Z,315
2023-01-26T13:40:31.135Z,315
2023-01-26T13:45:29.540Z,315
2023-01-26T13:50:28.601Z,315
2023-01-26T13:55:28.667Z,315
2023-01-26T14:00:28.732Z,315
2023-01-26T14:05:28.741Z,315
2023-01-26T14:10:28.865Z,315
2023-01-26T14:15:29.134Z,315
2023-01-26T14:20:29.186Z,315
2023-01-26T14:25:29.698Z,315
2023-01-26T14:30:29.416Z,0
2023-01-26T14:35:29.762Z,0
2023-01-26T14:40:28.995Z,338
2023-01-26T14:45:29.191Z,338
2023-01-26T14:50:29.335Z,315
2023-01-26T14:55:29.401Z,315
2023-01-26T15:00:29.510Z,315
2023-01-26T15:05:29.190Z,315
2023-01-26T15:10:29.563Z,338
2023-01-26T15:15:29.339Z,338
2023-01-26T15:20:29.189Z,315
2023-01-26T15:25:29.661Z,315
2023-01-26T15:30:31.052Z,315
2023-01-26T15:35:28.848Z,315
2023-01-26T15:40:29.037Z,315
2023-01-26T15:45:32.181Z,315
2023-01-26T15:50:30.274Z,315
2023-01-26T15:55:29.195Z,315
2023-01-26T16:00:29.767Z,315
2023-01-26T16:05:29.447Z,315
2023-01-26T16:10:29.476Z,315
2023-01-26T16:15:28.962Z,315
2023-01-26T16:20:29.473Z,315
2023-01-26T16:25:29.021Z,315
2023-01-26T16:30:29.511Z,315
2023-01-26T16:35:28.704Z,315
2023-01-26T16:40:29.817Z,315
2023-01-26T16:45:29.415Z,315
2023-01-26T16:50:31.570Z,315
2023-01-26T16:55:29.694Z,315
2023-01-26T17:00:29.583Z,315
2023-01-26T17:05:31.268Z,315
2023-01-26T17:10:29.805Z,0
2023-01-26T17:15:28.975Z,0
2023-01-26T17:20:29.570Z,0
2023-01-26T17:25:29.718Z,0
2023-01-26T17:30:30.805Z,338
2023-01-26T17:35:29.090Z,338
2023-01-26T17:40:29.121Z,45
2023-01-26T17:45:29.301Z,45
2023-01-26T17:50:29.441Z,315
2023-01-26T17:55:29.674Z,315
2023-01-26T18:00:28.887Z,315
2023-01-26T18:05:28.933Z,315
2023-01-26T18:10:28.965Z,315
2023-01-26T18:15:29.816Z,315
2023-01-26T18:20:28.809Z,315
2023-01-26T18:25:29.142Z,315
2023-01-26T18:30:29.285Z,315
2023-01-26T18:35:29.605Z,315
2023-01-26T18:40:29.900Z,315
2023-01-26T18:45:29.023Z,315
2023-01-26T18:50:29.148Z,315
2023-01-26T18:55:29.322Z,315
2023-01-26T19:00:29.955Z,22
2023-01-26T19:05:29.078Z,22
2023-01-26T19:10:29.559Z,22
2023-01-26T19:15:29.101Z,22
2023-01-26T19:20:29.718Z,0
2023-01-26T19:25:29.854Z,0
2023-01-26T19:30:28.883Z,0
2023-01-26T19:35:29.001Z,0
2023-01-26T19:40:29.134Z,22
2023-01-26T19:45:29.306Z,22
2023-01-26T19:50:29.550Z,0
2023-01-26T19:55:29.630Z,0
2023-01-26T20:00:29.967Z,22
2023-01-26T20:05:28.995Z,22
2023-01-26T20:10:29.059Z,22
2023-01-26T20:15:29.124Z,22
2023-01-26T20:20:29.066Z,338
2023-01-26T20:25:29.178Z,338
2023-01-26T20:30:29.702Z,22
2023-01-26T20:35:29.742Z,22
2023-01-26T20:40:29.881Z,22
2023-01-26T20:45:29.879Z,22
2023-01-26T20:50:29.060Z,22
2023-01-26T20:55:29.249Z,22
2023-01-26T21:00:29.343Z,0
2023-01-26T21:05:29.391Z,0
2023-01-26T21:10:29.661Z,0
2023-01-26T21:15:29.058Z,0
2023-01-26T21:20:29.795Z,0
2023-01-26T21:25:29.891Z,0
2023-01-26T21:30:29.151Z,0
2023-01-26T21:35:29.501Z,0
2023-01-26T21:40:29.484Z,22
2023-01-26T21:45:29.730Z,22
2023-01-26T21:50:29.904Z,22
2023-01-26T21:55:29.280Z,22
2023-01-26T22:00:31.701Z,315
2023-01-26T22:05:29.055Z,315
2023-01-26T22:10:29.117Z,338
2023-01-26T22:20:29.828Z,22
2023-01-26T22:25:29.953Z,22
2023-01-26T22:30:29.957Z,22
2023-01-26T22:35:29.231Z,22
2023-01-26T22:40:29.345Z,22
2023-01-26T22:45:29.318Z,22
2023-01-26T22:50:29.529Z,22
2023-01-26T22:55:29.480Z,22
2023-01-26T23:00:29.741Z,22
2023-01-26T23:05:29.828Z,22
2023-01-26T23:10:29.328Z,45
2023-01-26T23:15:29.356Z,45
2023-01-26T23:20:29.416Z,22
2023-01-26T23:25:29.568Z,22
2023-01-26T23:30:29.819Z,45
2023-01-26T23:35:29.846Z,45
2023-01-26T23:40:29.880Z,45
2023-01-26T23:45:29.879Z,45
2023-01-26T23:50:29.869Z,22
2023-01-26T23:55:30.060Z,22
